sensor_id;sensor_type;location;lat;lon;timestamp;pressure;altitude;pressure_sealevel;temperature;humidity
8318;BME280;4196;48.926;8.964;2023-02-02T00:01:14;99676.59;;;5.57;100.00
8318;BME280;4196;48.926;8.964;2023-02-02T00:04:01;99679.28;;;5.62;100.00
8318;BME280;4196;48.926;8.964;2023-02-02T00:06:48;99667.16;;;5.56;100.00
8318;BME280;4196;48.926;8.964;2023-02-02T00:09:34;99642.03;;;5.46;100.00
8318;BME280;4196;48.926;8.964;2023-02-02T00:12:21;99620.19;;;5.30;100.00
8318;BME280;4196;48.926;8.964;2023-02-02T00:15:07;99663.78;;;5.58;100.00
8318;BME280;4196;48.926;8.964;2023-02-02T00:17:54;99632.06;;;5.26;100.00
8318;BME280;4196;48.926;8.964;2023-02-02T00:20:41;99620.03;;;5.24;100.00
8318;BME280;4196;48.926;8.964;2023-02-02T00:23:27;99629.03;;;5.41;100.00
8318;BME280;4196;48.926;8.964;2023-02-02T00:26:14;99672.41;;;5.61;100.00
8318;BME280;4196;48.926;8.964;2023-02-02T00:29:01;99635.94;;;5.42;100.00
8318;BME280;4196;48.926;8.964;2023-02-02T00:31:47;99621.69;;;5.22;100.00
8318;BME280;4196;48.926;8.964;2023-02-02T00:34:34;99653.13;;;5.45;100.00
8318;BME280;4196;48.926;8.964;2023-02-02T00:37:23;99670.50;;;5.53;100.00
8318;BME280;4196;48.926;8.964;2023-02-02T00:40:10;99623.50;;;5.26;100.00
8318;BME280;4196;48.926;8.964;2023-02-02T00:42:56;99670.59;;;5.56;100.00
8318;BME280;4196;48.926;8.964;2023-02-02T00:45:43;99635.78;;;5.36;100.00
8318;BME280;4196;48.926;8.964;2023-02-02T00:48:29;99624.75;;;5.40;100.00
8318;BME280;4196;48.926;8.964;2023-02-02T00:51:16;99638.41;;;5.38;100.00
8318;BME280;4196;48.926;8.964;2023-02-02T00:54:03;99615.66;;;5.20;100.00
8318;BME280;4196;48.926;8.964;2023-02-02T00:56:49;99587.06;;;5.07;100.00
8318;BME280;4196;48.926;8.964;2023-02-02T00:59:35;99632.22;;;5.31;100.00
8318;BME280;4196;48.926;8.964;2023-02-02T01:02:22;99659.16;;;5.45;100.00
8318;BME280;4196;48.926;8.964;2023-02-02T01:05:10;99663.44;;;5.46;100.00
8318;BME280;4196;48.926;8.964;2023-02-02T01:07:57;99626.16;;;5.29;100.00
8318;BME280;4196;48.926;8.964;2023-02-02T01:10:43;99649.16;;;5.26;100.00
8318;BME280;4196;48.926;8.964;2023-02-02T01:13:30;99634.41;;;5.19;100.00
8318;BME280;4196;48.926;8.964;2023-02-02T01:16:17;99655.16;;;5.25;100.00
8318;BME280;4196;48.926;8.964;2023-02-02T01:19:03;99612.56;;;5.01;100.00
8318;BME280;4196;48.926;8.964;2023-02-02T01:21:49;99664.56;;;5.26;100.00
8318;BME280;4196;48.926;8.964;2023-02-02T01:24:38;99643.16;;;5.25;100.00
8318;BME280;4196;48.926;8.964;2023-02-02T01:27:24;99618.88;;;5.13;100.00
8318;BME280;4196;48.926;8.964;2023-02-02T01:30:11;99664.75;;;5.32;100.00
8318;BME280;4196;48.926;8.964;2023-02-02T01:32:58;99628.38;;;5.17;100.00
8318;BME280;4196;48.926;8.964;2023-02-02T01:35:51;99607.53;;;5.04;100.00
8318;BME280;4196;48.926;8.964;2023-02-02T01:38:38;99608.44;;;5.08;100.00
8318;BME280;4196;48.926;8.964;2023-02-02T01:41:25;99648.50;;;5.31;100.00
8318;BME280;4196;48.926;8.964;2023-02-02T01:47:41;99632.38;;;5.37;100.00
8318;BME280;4196;48.926;8.964;2023-02-02T01:50:31;99648.78;;;5.42;100.00
8318;BME280;4196;48.926;8.964;2023-02-02T01:53:19;99624.38;;;5.26;100.00
8318;BME280;4196;48.926;8.964;2023-02-02T01:56:07;99614.84;;;5.22;100.00
8318;BME280;4196;48.926;8.964;2023-02-02T01:58:56;99581.03;;;5.05;100.00
8318;BME280;4196;48.926;8.964;2023-02-02T02:01:45;99630.31;;;5.24;100.00
8318;BME280;4196;48.926;8.964;2023-02-02T02:04:33;99615.38;;;5.11;100.00
8318;BME280;4196;48.926;8.964;2023-02-02T02:07:21;99624.81;;;5.12;100.00
8318;BME280;4196;48.926;8.964;2023-02-02T02:10:08;99609.41;;;5.12;100.00
8318;BME280;4196;48.926;8.964;2023-02-02T02:12:54;99584.16;;;4.95;100.00
8318;BME280;4196;48.926;8.964;2023-02-02T02:16:07;99614.78;;;5.19;100.00
8318;BME280;4196;48.926;8.964;2023-02-02T02:35:50;99640.47;;;5.21;100.00
8318;BME280;4196;48.926;8.964;2023-02-02T02:41:59;99638.66;;;5.17;100.00
8318;BME280;4196;48.926;8.964;2023-02-02T02:44:50;99612.47;;;4.98;100.00
8318;BME280;4196;48.926;8.964;2023-02-02T02:47:40;99630.03;;;5.15;100.00
8318;BME280;4196;48.926;8.964;2023-02-02T02:50:27;99656.81;;;5.23;100.00
8318;BME280;4196;48.926;8.964;2023-02-02T02:53:17;99671.69;;;5.35;100.00
8318;BME280;4196;48.926;8.964;2023-02-02T02:56:15;99634.38;;;5.17;100.00
8318;BME280;4196;48.926;8.964;2023-02-02T02:59:32;99668.41;;;5.40;100.00
8318;BME280;4196;48.926;8.964;2023-02-02T03:06:04;99681.22;;;5.39;100.00
8318;BME280;4196;48.926;8.964;2023-02-02T03:08:58;99682.94;;;5.40;100.00
8318;BME280;4196;48.926;8.964;2023-02-02T03:11:45;99640.47;;;5.21;100.00
8318;BME280;4196;48.926;8.964;2023-02-02T03:14:35;99683.81;;;5.40;100.00
8318;BME280;4196;48.926;8.964;2023-02-02T03:17:23;99636.88;;;5.14;100.00
8318;BME280;4196;48.926;8.964;2023-02-02T03:20:09;99643.13;;;5.24;100.00
8318;BME280;4196;48.926;8.964;2023-02-02T03:22:56;99677.78;;;5.38;100.00
8318;BME280;4196;48.926;8.964;2023-02-02T03:25:42;99677.13;;;5.45;100.00
8318;BME280;4196;48.926;8.964;2023-02-02T03:28:29;99659.66;;;5.33;100.00
8318;BME280;4196;48.926;8.964;2023-02-02T03:31:17;99674.47;;;5.42;100.00
8318;BME280;4196;48.926;8.964;2023-02-02T03:34:03;99653.72;;;5.35;100.00
8318;BME280;4196;48.926;8.964;2023-02-02T03:36:50;99657.06;;;5.32;100.00
8318;BME280;4196;48.926;8.964;2023-02-02T03:39:36;99671.91;;;5.42;100.00
8318;BME280;4196;48.926;8.964;2023-02-02T03:42:22;99628.47;;;5.20;100.00
8318;BME280;4196;48.926;8.964;2023-02-02T03:45:09;99696.09;;;5.50;100.00
8318;BME280;4196;48.926;8.964;2023-02-02T03:47:56;99681.88;;;5.31;100.00
8318;BME280;4196;48.926;8.964;2023-02-02T03:50:42;99682.00;;;5.36;100.00
8318;BME280;4196;48.926;8.964;2023-02-02T03:53:28;99656.94;;;5.27;100.00
8318;BME280;4196;48.926;8.964;2023-02-02T03:56:15;99671.53;;;5.30;100.00
8318;BME280;4196;48.926;8.964;2023-02-02T03:59:01;99707.19;;;5.49;100.00
8318;BME280;4196;48.926;8.964;2023-02-02T04:01:48;99697.81;;;5.51;100.00
8318;BME280;4196;48.926;8.964;2023-02-02T04:04:34;99650.56;;;5.15;100.00
8318;BME280;4196;48.926;8.964;2023-02-02T04:07:20;99698.69;;;5.52;100.00
8318;BME280;4196;48.926;8.964;2023-02-02T04:10:07;99672.59;;;5.37;100.00
8318;BME280;4196;48.926;8.964;2023-02-02T04:12:53;99663.03;;;5.31;100.00
8318;BME280;4196;48.926;8.964;2023-02-02T04:15:40;99650.94;;;5.27;100.00
8318;BME280;4196;48.926;8.964;2023-02-02T04:18:27;99679.59;;;5.42;100.00
8318;BME280;4196;48.926;8.964;2023-02-02T04:21:13;99662.28;;;5.35;100.00
8318;BME280;4196;48.926;8.964;2023-02-02T04:24:00;99704.78;;;5.55;100.00
8318;BME280;4196;48.926;8.964;2023-02-02T04:26:46;99648.44;;;5.30;100.00
8318;BME280;4196;48.926;8.964;2023-02-02T04:29:32;99674.47;;;5.42;100.00
8318;BME280;4196;48.926;8.964;2023-02-02T04:32:19;99644.88;;;5.25;100.00
8318;BME280;4196;48.926;8.964;2023-02-02T04:35:06;99676.28;;;5.46;100.00
8318;BME280;4196;48.926;8.964;2023-02-02T04:37:54;99691.69;;;5.46;100.00
8318;BME280;4196;48.926;8.964;2023-02-02T04:40:42;99711.75;;;5.60;100.00
8318;BME280;4196;48.926;8.964;2023-02-02T04:43:29;99720.28;;;5.58;100.00
8318;BME280;4196;48.926;8.964;2023-02-02T04:46:15;99681.38;;;5.45;100.00
8318;BME280;4196;48.926;8.964;2023-02-02T04:49:01;99711.59;;;5.53;100.00
8318;BME280;4196;48.926;8.964;2023-02-02T04:51:48;99711.41;;;5.47;100.00
8318;BME280;4196;48.926;8.964;2023-02-02T04:54:35;99691.44;;;5.37;100.00
8318;BME280;4196;48.926;8.964;2023-02-02T04:57:21;99691.50;;;5.40;100.00
8318;BME280;4196;48.926;8.964;2023-02-02T05:00:09;99730.66;;;5.62;100.00
8318;BME280;4196;48.926;8.964;2023-02-02T05:02:59;99704.88;;;5.58;100.00
8318;BME280;4196;48.926;8.964;2023-02-02T05:05:46;99695.00;;;5.42;100.00
8318;BME280;4196;48.926;8.964;2023-02-02T05:08:33;99706.34;;;5.49;100.00
8318;BME280;4196;48.926;8.964;2023-02-02T05:11:22;99725.31;;;5.54;100.00
8318;BME280;4196;48.926;8.964;2023-02-02T05:14:08;99703.31;;;5.33;100.00
8318;BME280;4196;48.926;8.964;2023-02-02T05:16:55;99729.38;;;5.47;100.00
8318;BME280;4196;48.926;8.964;2023-02-02T05:19:41;99733.78;;;5.51;100.00
8318;BME280;4196;48.926;8.964;2023-02-02T05:22:28;99720.28;;;5.28;100.00
8318;BME280;4196;48.926;8.964;2023-02-02T05:25:15;99731.06;;;5.45;100.00
8318;BME280;4196;48.926;8.964;2023-02-02T05:28:04;99729.47;;;5.50;100.00
8318;BME280;4196;48.926;8.964;2023-02-02T05:30:51;99764.78;;;5.57;100.00
8318;BME280;4196;48.926;8.964;2023-02-02T05:33:38;99721.44;;;5.38;100.00
8318;BME280;4196;48.926;8.964;2023-02-02T05:36:24;99721.47;;;5.40;100.00
8318;BME280;4196;48.926;8.964;2023-02-02T05:39:11;99760.78;;;5.67;100.00
8318;BME280;4196;48.926;8.964;2023-02-02T05:41:57;99759.66;;;5.57;100.00
8318;BME280;4196;48.926;8.964;2023-02-02T05:44:44;99779.75;;;5.71;100.00
8318;BME280;4196;48.926;8.964;2023-02-02T05:47:30;99776.25;;;5.69;100.00
8318;BME280;4196;48.926;8.964;2023-02-02T05:50:16;99759.91;;;5.67;100.00
8318;BME280;4196;48.926;8.964;2023-02-02T05:53:03;99747.34;;;5.46;100.00
8318;BME280;4196;48.926;8.964;2023-02-02T05:55:49;99759.84;;;5.64;100.00
8318;BME280;4196;48.926;8.964;2023-02-02T05:58:36;99764.97;;;5.64;100.00
8318;BME280;4196;48.926;8.964;2023-02-02T06:01:22;99735.44;;;5.49;100.00
8318;BME280;4196;48.926;8.964;2023-02-02T06:04:10;99733.66;;;5.47;100.00
8318;BME280;4196;48.926;8.964;2023-02-02T06:06:56;99760.41;;;5.53;100.00
8318;BME280;4196;48.926;8.964;2023-02-02T06:09:43;99731.13;;;5.48;100.00
8318;BME280;4196;48.926;8.964;2023-02-02T06:12:29;99776.97;;;5.65;100.00
8318;BME280;4196;48.926;8.964;2023-02-02T06:15:16;99747.19;;;5.41;100.00
8318;BME280;4196;48.926;8.964;2023-02-02T06:18:03;99763.84;;;5.54;100.00
8318;BME280;4196;48.926;8.964;2023-02-02T06:20:58;99771.66;;;5.58;100.00
8318;BME280;4196;48.926;8.964;2023-02-02T06:23:44;99748.94;;;5.42;100.00
8318;BME280;4196;48.926;8.964;2023-02-02T06:26:31;99754.94;;;5.43;100.00
8318;BME280;4196;48.926;8.964;2023-02-02T06:29:18;99786.19;;;5.56;100.00
8318;BME280;4196;48.926;8.964;2023-02-02T06:32:04;99730.78;;;5.36;100.00
8318;BME280;4196;48.926;8.964;2023-02-02T06:34:51;99748.97;;;5.44;100.00
8318;BME280;4196;48.926;8.964;2023-02-02T06:37:37;99775.25;;;5.64;100.00
8318;BME280;4196;48.926;8.964;2023-02-02T06:40:25;99762.97;;;5.53;100.00
8318;BME280;4196;48.926;8.964;2023-02-02T06:43:12;99779.44;;;5.60;100.00
8318;BME280;4196;48.926;8.964;2023-02-02T06:46:00;99780.22;;;5.59;100.00
8318;BME280;4196;48.926;8.964;2023-02-02T06:48:47;99755.63;;;5.37;100.00
8318;BME280;4196;48.926;8.964;2023-02-02T06:51:33;99708.53;;;5.06;100.00
8318;BME280;4196;48.926;8.964;2023-02-02T06:54:20;99764.59;;;5.51;100.00
8318;BME280;4196;48.926;8.964;2023-02-02T06:57:06;99785.56;;;5.65;100.00
8318;BME280;4196;48.926;8.964;2023-02-02T06:59:54;99781.28;;;5.66;100.00
8318;BME280;4196;48.926;8.964;2023-02-02T07:02:44;99791.75;;;5.72;100.00
8318;BME280;4196;48.926;8.964;2023-02-02T07:05:30;99793.38;;;5.70;100.00
8318;BME280;4196;48.926;8.964;2023-02-02T07:08:17;99760.56;;;5.60;100.00
8318;BME280;4196;48.926;8.964;2023-02-02T07:11:03;99766.63;;;5.62;100.00
8318;BME280;4196;48.926;8.964;2023-02-02T07:14:01;99790.81;;;5.70;100.00
8318;BME280;4196;48.926;8.964;2023-02-02T07:16:47;99791.69;;;5.70;100.00
8318;BME280;4196;48.926;8.964;2023-02-02T07:19:33;99764.69;;;5.54;100.00
8318;BME280;4196;48.926;8.964;2023-02-02T07:22:20;99793.25;;;5.65;100.00
8318;BME280;4196;48.926;8.964;2023-02-02T07:25:07;99788.13;;;5.65;100.00
8318;BME280;4196;48.926;8.964;2023-02-02T07:27:53;99790.56;;;5.61;100.00
8318;BME280;4196;48.926;8.964;2023-02-02T07:30:40;99808.47;;;5.57;100.00
8318;BME280;4196;48.926;8.964;2023-02-02T07:33:26;99788.69;;;5.55;100.00
8318;BME280;4196;48.926;8.964;2023-02-02T07:36:15;99786.25;;;5.60;100.00
8318;BME280;4196;48.926;8.964;2023-02-02T07:39:03;99795.22;;;5.74;100.00
8318;BME280;4196;48.926;8.964;2023-02-02T07:41:50;99784.03;;;5.72;100.00
8318;BME280;4196;48.926;8.964;2023-02-02T07:44:48;99786.53;;;5.69;100.00
8318;BME280;4196;48.926;8.964;2023-02-02T07:47:34;99790.81;;;5.70;100.00
8318;BME280;4196;48.926;8.964;2023-02-02T07:50:21;99769.94;;;5.57;100.00
8318;BME280;4196;48.926;8.964;2023-02-02T07:53:07;99774.19;;;5.57;100.00
8318;BME280;4196;48.926;8.964;2023-02-02T07:56:13;99803.97;;;5.80;100.00
8318;BME280;4196;48.926;8.964;2023-02-02T07:59:00;99796.25;;;5.79;100.00
8318;BME280;4196;48.926;8.964;2023-02-02T08:01:47;99806.53;;;5.80;100.00
8318;BME280;4196;48.926;8.964;2023-02-02T08:04:33;99818.72;;;5.86;100.00
8318;BME280;4196;48.926;8.964;2023-02-02T08:07:20;99787.59;;;5.77;100.00
8318;BME280;4196;48.926;8.964;2023-02-02T08:10:09;99798.06;;;5.83;100.00
8318;BME280;4196;48.926;8.964;2023-02-02T08:12:56;99791.00;;;5.76;100.00
8318;BME280;4196;48.926;8.964;2023-02-02T08:15:42;99829.56;;;6.06;100.00
8318;BME280;4196;48.926;8.964;2023-02-02T08:18:28;99832.88;;;6.00;100.00
8318;BME280;4196;48.926;8.964;2023-02-02T08:21:15;99841.75;;;6.12;100.00
8318;BME280;4196;48.926;8.964;2023-02-02T08:24:02;99846.88;;;6.12;100.00
8318;BME280;4196;48.926;8.964;2023-02-02T08:26:50;99837.16;;;6.01;100.00
8318;BME280;4196;48.926;8.964;2023-02-02T08:29:37;99851.84;;;6.05;100.00
8318;BME280;4196;48.926;8.964;2023-02-02T08:32:24;99865.88;;;6.17;100.00
8318;BME280;4196;48.926;8.964;2023-02-02T08:35:10;99823.94;;;5.89;100.00
8318;BME280;4196;48.926;8.964;2023-02-02T08:37:56;99848.03;;;5.93;100.00
8318;BME280;4196;48.926;8.964;2023-02-02T08:40:43;99840.25;;;5.91;100.00
8318;BME280;4196;48.926;8.964;2023-02-02T08:43:29;99884.72;;;6.16;100.00
8318;BME280;4196;48.926;8.964;2023-02-02T08:46:17;99892.34;;;6.14;100.00
8318;BME280;4196;48.926;8.964;2023-02-02T08:49:04;99873.16;;;6.01;100.00
8318;BME280;4196;48.926;8.964;2023-02-02T08:51:51;99875.06;;;6.09;100.00
8318;BME280;4196;48.926;8.964;2023-02-02T08:54:37;99873.25;;;6.04;100.00
8318;BME280;4196;48.926;8.964;2023-02-02T08:57:24;99869.81;;;6.04;100.00
8318;BME280;4196;48.926;8.964;2023-02-02T09:00:10;99857.28;;;5.88;100.00
8318;BME280;4196;48.926;8.964;2023-02-02T09:02:57;99901.69;;;6.11;100.00
8318;BME280;4196;48.926;8.964;2023-02-02T09:05:43;99868.66;;;5.94;100.00
8318;BME280;4196;48.926;8.964;2023-02-02T09:08:30;99884.34;;;6.03;100.00
8318;BME280;4196;48.926;8.964;2023-02-02T09:11:19;99895.56;;;6.05;100.00
8318;BME280;4196;48.926;8.964;2023-02-02T09:14:05;99878.78;;;5.90;100.00
8318;BME280;4196;48.926;8.964;2023-02-02T09:16:52;99892.00;;;6.00;100.00
8318;BME280;4196;48.926;8.964;2023-02-02T09:19:38;99885.91;;;5.98;100.00
8318;BME280;4196;48.926;8.964;2023-02-02T09:22:28;99913.84;;;6.16;100.00
8318;BME280;4196;48.926;8.964;2023-02-02T09:25:15;99909.56;;;6.15;100.00
8318;BME280;4196;48.926;8.964;2023-02-02T09:28:01;99873.91;;;5.97;100.00
8318;BME280;4196;48.926;8.964;2023-02-02T09:30:47;99917.97;;;6.11;100.00
8318;BME280;4196;48.926;8.964;2023-02-02T09:33:34;99897.19;;;6.03;100.00
8318;BME280;4196;48.926;8.964;2023-02-02T09:36:22;99895.59;;;6.07;100.00
8318;BME280;4196;48.926;8.964;2023-02-02T09:39:12;99863.31;;;5.88;100.00
8318;BME280;4196;48.926;8.964;2023-02-02T09:45:11;99926.72;;;6.16;100.00
8318;BME280;4196;48.926;8.964;2023-02-02T09:48:19;99905.88;;;6.07;100.00
8318;BME280;4196;48.926;8.964;2023-02-02T09:51:12;99908.59;;;6.12;100.00
8318;BME280;4196;48.926;8.964;2023-02-02T09:54:16;99938.28;;;6.31;100.00
8318;BME280;4196;48.926;8.964;2023-02-02T09:57:16;99926.00;;;6.22;100.00
8318;BME280;4196;48.926;8.964;2023-02-02T10:00:05;99942.59;;;6.33;100.00
8318;BME280;4196;48.926;8.964;2023-02-02T10:03:16;99930.50;;;6.29;100.00
8318;BME280;4196;48.926;8.964;2023-02-02T10:09:38;99927.34;;;6.38;100.00
8318;BME280;4196;48.926;8.964;2023-02-02T10:12:35;99939.97;;;6.30;100.00
8318;BME280;4196;48.926;8.964;2023-02-02T10:16:04;99950.94;;;6.24;100.00
8318;BME280;4196;48.926;8.964;2023-02-02T10:18:59;99922.25;;;6.11;100.00
8318;BME280;4196;48.926;8.964;2023-02-02T10:24:33;99932.72;;;6.17;100.00
8318;BME280;4196;48.926;8.964;2023-02-02T10:27:36;99947.50;;;6.24;100.00
8318;BME280;4196;48.926;8.964;2023-02-02T10:30:52;99949.13;;;6.20;100.00
8318;BME280;4196;48.926;8.964;2023-02-02T10:33:41;99918.66;;;6.04;100.00
8318;BME280;4196;48.926;8.964;2023-02-02T10:43:25;99953.66;;;6.29;100.00
8318;BME280;4196;48.926;8.964;2023-02-02T10:46:35;99943.44;;;6.32;100.00
8318;BME280;4196;48.926;8.964;2023-02-02T10:49:29;99965.47;;;6.52;100.00
8318;BME280;4196;48.926;8.964;2023-02-02T10:52:24;99902.16;;;6.26;100.00
8318;BME280;4196;48.926;8.964;2023-02-02T10:55:30;99955.13;;;6.51;100.00
8318;BME280;4196;48.926;8.964;2023-02-02T10:58:27;99924.59;;;6.33;100.00
8318;BME280;4196;48.926;8.964;2023-02-02T11:01:14;99930.88;;;6.41;100.00
8318;BME280;4196;48.926;8.964;2023-02-02T11:04:03;99945.78;;;6.54;100.00
8318;BME280;4196;48.926;8.964;2023-02-02T11:07:09;99915.53;;;6.44;100.00
8318;BME280;4196;48.926;8.964;2023-02-02T11:09:58;99945.34;;;6.69;100.00
8318;BME280;4196;48.926;8.964;2023-02-02T11:12:46;99930.81;;;6.71;100.00
8318;BME280;4196;48.926;8.964;2023-02-02T11:15:38;99942.00;;;6.73;100.00
8318;BME280;4196;48.926;8.964;2023-02-02T11:18:29;99951.78;;;6.85;100.00
8318;BME280;4196;48.926;8.964;2023-02-02T11:21:28;99963.75;;;6.85;100.00
8318;BME280;4196;48.926;8.964;2023-02-02T11:24:23;99968.72;;;6.77;100.00
8318;BME280;4196;48.926;8.964;2023-02-02T11:27:15;99965.06;;;6.69;100.00
8318;BME280;4196;48.926;8.964;2023-02-02T11:30:31;99954.69;;;6.66;100.00
8318;BME280;4196;48.926;8.964;2023-02-02T11:36:18;99937.84;;;6.45;100.00
8318;BME280;4196;48.926;8.964;2023-02-02T11:39:18;99960.47;;;6.59;100.00
8318;BME280;4196;48.926;8.964;2023-02-02T11:42:12;99913.38;;;6.29;100.00
8318;BME280;4196;48.926;8.964;2023-02-02T11:44:59;99936.91;;;6.43;100.00
8318;BME280;4196;48.926;8.964;2023-02-02T11:47:46;99951.81;;;6.55;100.00
8318;BME280;4196;48.926;8.964;2023-02-02T11:50:32;99932.84;;;6.51;100.00
8318;BME280;4196;48.926;8.964;2023-02-02T11:56:19;99952.72;;;6.56;100.00
8318;BME280;4196;48.926;8.964;2023-02-02T11:59:32;99948.78;;;6.38;100.00
8318;BME280;4196;48.926;8.964;2023-02-02T12:02:21;99950.56;;;6.41;100.00
8318;BME280;4196;48.926;8.964;2023-02-02T12:07:55;99920.81;;;6.19;100.00
8318;BME280;4196;48.926;8.964;2023-02-02T12:10:58;99940.00;;;6.32;100.00
8318;BME280;4196;48.926;8.964;2023-02-02T12:14:16;99945.88;;;6.26;100.00
8318;BME280;4196;48.926;8.964;2023-02-02T12:17:20;99944.91;;;6.22;100.00
8318;BME280;4196;48.926;8.964;2023-02-02T12:27:01;99927.13;;;6.01;100.00
8318;BME280;4196;48.926;8.964;2023-02-02T12:39:20;99920.16;;;5.97;100.00
8318;BME280;4196;48.926;8.964;2023-02-02T12:45:24;99949.13;;;6.20;100.00
8318;BME280;4196;48.926;8.964;2023-02-02T13:00:39;99952.88;;;6.32;100.00
8318;BME280;4196;48.926;8.964;2023-02-02T13:03:48;99945.94;;;6.29;100.00
8318;BME280;4196;48.926;8.964;2023-02-02T13:06:47;99945.13;;;6.30;100.00
8318;BME280;4196;48.926;8.964;2023-02-02T13:12:50;99940.94;;;6.34;100.00
8318;BME280;4196;48.926;8.964;2023-02-02T13:15:41;99928.44;;;6.47;100.00
8318;BME280;4196;48.926;8.964;2023-02-02T13:18:33;99904.03;;;6.33;100.00
8318;BME280;4196;48.926;8.964;2023-02-02T13:21:22;99927.56;;;6.47;100.00
8318;BME280;4196;48.926;8.964;2023-02-02T13:24:14;99903.22;;;6.34;100.00
8318;BME280;4196;48.926;8.964;2023-02-02T13:27:06;99932.81;;;6.50;100.00
8318;BME280;4196;48.926;8.964;2023-02-02T13:30:22;99933.94;;;6.60;100.00
8318;BME280;4196;48.926;8.964;2023-02-02T13:33:26;99944.56;;;6.72;100.00
8318;BME280;4196;48.926;8.964;2023-02-02T13:36:23;99955.84;;;6.77;100.00
8318;BME280;4196;48.926;8.964;2023-02-02T13:39:32;99952.28;;;6.72;100.00
8318;BME280;4196;48.926;8.964;2023-02-02T13:42:41;99961.66;;;6.70;100.00
8318;BME280;4196;48.926;8.964;2023-02-02T13:48:51;99962.41;;;6.66;100.00
8318;BME280;4196;48.926;8.964;2023-02-02T13:51:48;99966.75;;;6.67;100.00
8318;BME280;4196;48.926;8.964;2023-02-02T14:00:55;99944.06;;;6.53;100.00
8318;BME280;4196;48.926;8.964;2023-02-02T14:03:55;99975.25;;;6.66;100.00
8318;BME280;4196;48.926;8.964;2023-02-02T14:06:54;99970.78;;;6.59;100.00
8318;BME280;4196;48.926;8.964;2023-02-02T14:09:47;99943.81;;;6.44;100.00
8318;BME280;4196;48.926;8.964;2023-02-02T14:12:34;99958.66;;;6.54;100.00
8318;BME280;4196;48.926;8.964;2023-02-02T14:15:51;99979.59;;;6.67;100.00
8318;BME280;4196;48.926;8.964;2023-02-02T14:19:01;99987.25;;;6.65;100.00
8318;BME280;4196;48.926;8.964;2023-02-02T14:30:22;99989.16;;;6.71;100.00
8318;BME280;4196;48.926;8.964;2023-02-02T14:36:11;99984.91;;;6.73;100.00
8318;BME280;4196;48.926;8.964;2023-02-02T14:39:05;99959.31;;;6.47;100.00
8318;BME280;4196;48.926;8.964;2023-02-02T14:42:19;99989.94;;;6.68;100.00
8318;BME280;4196;48.926;8.964;2023-02-02T14:45:43;99997.88;;;6.76;100.00
8318;BME280;4196;48.926;8.964;2023-02-02T14:48:31;99995.25;;;6.74;100.00
8318;BME280;4196;48.926;8.964;2023-02-02T14:51:27;99975.16;;;6.63;100.00
8318;BME280;4196;48.926;8.964;2023-02-02T14:54:25;100004.75;;;6.77;100.00
8318;BME280;4196;48.926;8.964;2023-02-02T14:57:23;100001.66;;;6.89;100.00
8318;BME280;4196;48.926;8.964;2023-02-02T15:00:32;100000.81;;;6.90;100.00
8318;BME280;4196;48.926;8.964;2023-02-02T15:03:36;100011.06;;;6.88;100.00
8318;BME280;4196;48.926;8.964;2023-02-02T15:06:39;100015.41;;;6.89;100.00
8318;BME280;4196;48.926;8.964;2023-02-02T15:09:35;100009.22;;;6.84;100.00
8318;BME280;4196;48.926;8.964;2023-02-02T15:15:25;100033.56;;;6.95;100.00
8318;BME280;4196;48.926;8.964;2023-02-02T15:18:20;100011.38;;;6.69;100.00
8318;BME280;4196;48.926;8.964;2023-02-02T15:21:15;100032.41;;;6.84;100.00
8318;BME280;4196;48.926;8.964;2023-02-02T15:24:02;100021.88;;;6.75;100.00
8318;BME280;4196;48.926;8.964;2023-02-02T15:26:51;100037.56;;;6.84;100.00
8318;BME280;4196;48.926;8.964;2023-02-02T15:29:43;100040.72;;;6.74;100.00
8318;BME280;4196;48.926;8.964;2023-02-02T15:32:30;100050.09;;;6.72;100.00
8318;BME280;4196;48.926;8.964;2023-02-02T15:35:22;100052.66;;;6.72;100.00
8318;BME280;4196;48.926;8.964;2023-02-02T15:38:14;100062.09;;;6.71;100.00
8318;BME280;4196;48.926;8.964;2023-02-02T15:41:07;100039.50;;;6.63;100.00
8318;BME280;4196;48.926;8.964;2023-02-02T15:43:58;100066.38;;;6.71;100.00
8318;BME280;4196;48.926;8.964;2023-02-02T15:46:46;100014.19;;;6.46;100.00
8318;BME280;4196;48.926;8.964;2023-02-02T15:49:34;100065.53;;;6.72;100.00
8318;BME280;4196;48.926;8.964;2023-02-02T15:52:25;100050.50;;;6.57;100.00
8318;BME280;4196;48.926;8.964;2023-02-02T15:55:21;100058.25;;;6.59;100.00
8318;BME280;4196;48.926;8.964;2023-02-02T15:58:26;100084.47;;;6.74;100.00
8318;BME280;4196;48.926;8.964;2023-02-02T16:01:42;100088.88;;;6.78;100.00
8318;BME280;4196;48.926;8.964;2023-02-02T16:04:36;100087.81;;;6.71;100.00
8318;BME280;4196;48.926;8.964;2023-02-02T16:07:29;100091.34;;;6.75;100.00
8318;BME280;4196;48.926;8.964;2023-02-02T16:10:20;100078.84;;;6.59;100.00
8318;BME280;4196;48.926;8.964;2023-02-02T16:13:06;100088.69;;;6.72;100.00
8318;BME280;4196;48.926;8.964;2023-02-02T16:15:57;100106.91;;;6.78;100.00
8318;BME280;4196;48.926;8.964;2023-02-02T16:18:44;100079.88;;;6.64;100.00
8318;BME280;4196;48.926;8.964;2023-02-02T16:21:31;100089.88;;;6.54;100.00
8318;BME280;4196;48.926;8.964;2023-02-02T16:24:25;100104.69;;;6.62;100.00
8318;BME280;4196;48.926;8.964;2023-02-02T16:27:17;100115.81;;;6.61;100.00
8318;BME280;4196;48.926;8.964;2023-02-02T16:30:08;100163.56;;;6.80;100.00
8318;BME280;4196;48.926;8.964;2023-02-02T16:39:20;100171.06;;;6.72;100.00
8318;BME280;4196;48.926;8.964;2023-02-02T16:45:48;100172.41;;;6.61;100.00
8318;BME280;4196;48.926;8.964;2023-02-02T16:48:41;100201.84;;;6.69;100.00
8318;BME280;4196;48.926;8.964;2023-02-02T16:51:31;100217.03;;;6.61;100.00
8318;BME280;4196;48.926;8.964;2023-02-02T16:54:19;100182.97;;;6.41;100.00
8318;BME280;4196;48.926;8.964;2023-02-02T16:57:06;100209.22;;;6.58;100.00
8318;BME280;4196;48.926;8.964;2023-02-02T17:00:00;100221.91;;;6.52;100.00
8318;BME280;4196;48.926;8.964;2023-02-02T17:02:50;100223.78;;;6.58;100.00
8318;BME280;4196;48.926;8.964;2023-02-02T17:05:48;100229.56;;;6.50;100.00
8318;BME280;4196;48.926;8.964;2023-02-02T17:08:37;100204.06;;;6.31;100.00
8318;BME280;4196;48.926;8.964;2023-02-02T17:11:26;100235.22;;;6.40;100.00
8318;BME280;4196;48.926;8.964;2023-02-02T17:14:23;100232.47;;;6.34;100.00
8318;BME280;4196;48.926;8.964;2023-02-02T17:17:12;100227.88;;;6.25;100.00
8318;BME280;4196;48.926;8.964;2023-02-02T17:19:58;100230.16;;;6.16;100.00
8318;BME280;4196;48.926;8.964;2023-02-02T17:22:50;100249.34;;;6.26;100.00
8318;BME280;4196;48.926;8.964;2023-02-02T17:25:41;100229.06;;;6.10;100.00
8318;BME280;4196;48.926;8.964;2023-02-02T17:28:28;100239.81;;;6.23;100.00